Lobeco, South Carolina
Current Conditions -  °F | °C
As of 8:56 AM on Thursday 29 Jan 2015 (Local Time) from KNBC Reporting Station
Broken Clouds Broken Clouds  
Wind Chill: 42°   Ceiling: 25000
Heat Index: 42°   Visibility: 10mi
Dew Point: 36°   Wind: 0mph
Humidity: 79%   Direction: NA
Pressure: 30.38"   Gusts: NA
Location:  32.55°N, 80.74°W
Report Text: KNBC 291356Z 00000KT 10SM BKN250 06/02 A3038 RMK AO2 SLP287 T00560022
Loading
Personal Weather Stations






























Interactive Weather Map New forecast layout! Learn more

10-Day Weather Forecast

Advertisements
Track Severe Weather on mobile